Hlavní strana
METAR-TAF:

METAR-TAF

Letiště :

Tallahassee Regional Airport

Tallahassee, Florida, Spojené státy americké

zeměpisná šířka: 30-23-35N, zeměpisná délka: 084-21-12W, výška: 24 m

Aktuální stav počasí

Zpráva byla vytvořena před 38 minutami, v 10:53 UTC
Bezvětří
Teplota 23°C
Vlhkost vzduchu 94%
Tlak 1020 hPa
Viditelnost: 11.3 km
Jasno

METAR: KTLH 261053Z 00000KT 7SM CLR 23/22 A3013 RMK AO2 SLP203 T02280217

Čas: 07:31 (11:31 UTC)

Předpověď počasí

Zpráva byla vytvořena před 6 hodinami a 11 minutami, v 05:20 UTC
Předpověď platná od 26 v 06 UTC do 27 v 06 UTC
Jižní vítr 6 kt
Viditelnost: 10 km
Polojasno ve výšce 7000 ft

TAF: KTLH 260520Z 2606/2706 18006KT P6SM SCT070

Stav a předpovědi počasí z více než 4 000 letišť (zprávy METAR a TAF).

Červené a žluté tečky na mapě představují dostupné meteorologické stanice.

Když kurzor umístíte na tečku, zobrazí se název stanice.

Pak kliknutím zobrazíte stav a předpověď počasí.

Chcete-li změnit mapu, kliknutím na zelené tlačítko se znaménkem +mapu přiblížíte, kliknutím na zelené tlačítko se znaménkem – mapu oddálíte a kliknutím na zelené šipky přejdete na sousední mapy.


METAR-TAF: